createdAt,value
2022-11-09T00:01:31.547Z,1.98
2022-11-09T00:03:59.792Z,1.92
2022-11-09T00:06:27.649Z,2.20
2022-11-09T00:08:54.543Z,2.22
2022-11-09T00:11:21.546Z,2.00
2022-11-09T00:13:48.904Z,1.75
2022-11-09T00:16:17.762Z,1.88
2022-11-09T00:18:47.571Z,2.13
2022-11-09T00:21:19.355Z,2.20
2022-11-09T00:23:46.006Z,2.20
2022-11-09T00:26:13.899Z,2.28
2022-11-09T00:28:40.924Z,2.00
2022-11-09T00:31:11.614Z,2.20
2022-11-09T00:33:38.453Z,1.80
2022-11-09T00:36:11.188Z,1.92
2022-11-09T00:38:40.221Z,2.25
2022-11-09T00:41:08.679Z,1.60
2022-11-09T00:43:35.412Z,1.83
2022-11-09T00:46:02.101Z,2.15
2022-11-09T00:48:29.158Z,1.90
2022-11-09T00:50:57.569Z,1.92
2022-11-09T00:53:24.508Z,1.80
2022-11-09T00:55:58.842Z,1.98
2022-11-09T00:58:27.032Z,2.03
2022-11-09T01:00:54.682Z,1.98
2022-11-09T01:03:22.068Z,2.08
2022-11-09T01:05:49.085Z,1.60
2022-11-09T01:08:17.639Z,1.60
2022-11-09T01:10:47.949Z,2.22
2022-11-09T01:13:16.430Z,1.92
2022-11-09T01:15:53.619Z,1.55
2022-11-09T01:18:21.088Z,1.75
2022-11-09T01:20:48.774Z,2.17
2022-11-09T01:23:18.105Z,1.75
2022-11-09T01:25:44.921Z,1.85
2022-11-09T01:28:12.269Z,2.00
2022-11-09T01:30:43.209Z,1.80
2022-11-09T01:33:11.792Z,2.17
2022-11-09T01:35:39.796Z,1.50
2022-11-09T01:38:07.819Z,2.20
2022-11-09T01:40:36.667Z,1.40
2022-11-09T01:43:17.759Z,1.45
2022-11-09T01:45:54.600Z,1.63
2022-11-09T01:48:33.426Z,1.73
2022-11-09T01:51:05.151Z,1.80
2022-11-09T01:53:35.054Z,1.65
2022-11-09T01:56:05.377Z,1.50
2022-11-09T01:58:39.745Z,1.50
2022-11-09T02:01:11.016Z,1.95
2022-11-09T02:03:43.212Z,1.52
2022-11-09T02:06:12.072Z,1.58
2022-11-09T02:08:39.694Z,1.83
2022-11-09T02:11:11.841Z,2.00
2022-11-09T02:13:40.209Z,1.58
2022-11-09T02:16:09.615Z,1.88
2022-11-09T02:18:41.049Z,1.90
2022-11-09T02:21:07.603Z,1.50
2022-11-09T02:23:34.114Z,1.67
2022-11-09T02:26:05.431Z,1.63
2022-11-09T02:28:32.284Z,1.60
2022-11-09T02:30:59.375Z,2.10
2022-11-09T02:33:26.232Z,1.60
2022-11-09T02:35:53.923Z,1.40
2022-11-09T02:38:21.625Z,1.67
2022-11-09T02:40:50.010Z,1.65
2022-11-09T02:43:18.266Z,1.95
2022-11-09T02:45:45.358Z,1.80
2022-11-09T02:48:11.912Z,1.88
2022-11-09T02:50:38.413Z,1.92
2022-11-09T02:53:06.005Z,1.65
2022-11-09T02:55:35.747Z,1.77
2022-11-09T02:58:02.326Z,1.75
2022-11-09T03:00:30.121Z,1.52
2022-11-09T03:02:56.942Z,1.80
2022-11-09T03:05:23.769Z,1.80
2022-11-09T03:07:50.293Z,1.83
2022-11-09T03:10:17.216Z,1.55
2022-11-09T03:12:43.990Z,2.22
2022-11-09T03:15:13.748Z,1.80
2022-11-09T03:17:44.094Z,1.93
2022-11-09T03:20:11.180Z,1.90
2022-11-09T03:22:39.259Z,2.75
2022-11-09T03:25:06.409Z,1.65
2022-11-09T03:27:33.223Z,1.58
2022-11-09T03:29:59.820Z,1.45
2022-11-09T03:32:26.501Z,2.17
2022-11-09T03:34:53.356Z,2.20
2022-11-09T03:37:20.200Z,1.98
2022-11-09T03:39:46.770Z,2.03
2022-11-09T03:42:13.326Z,1.65
2022-11-09T03:44:40.256Z,2.05
2022-11-09T03:47:06.775Z,1.83
2022-11-09T03:49:33.388Z,2.15
2022-11-09T03:51:59.865Z,1.73
2022-11-09T03:54:26.360Z,1.70
2022-11-09T03:56:52.945Z,1.60
2022-11-09T03:59:19.488Z,1.60
2022-11-09T04:01:46.298Z,1.35
2022-11-09T04:04:13.005Z,2.03
2022-11-09T04:06:39.606Z,1.73
2022-11-09T04:09:06.140Z,1.75
2022-11-09T04:11:32.652Z,1.90
2022-11-09T04:13:59.207Z,1.95
2022-11-09T04:16:25.799Z,2.03
2022-11-09T04:18:52.374Z,1.67
2022-11-09T04:21:22.870Z,2.30
2022-11-09T04:23:50.568Z,1.65
2022-11-09T04:26:17.138Z,1.90
2022-11-09T04:28:43.647Z,1.60
2022-11-09T04:31:10.171Z,1.85
2022-11-09T04:33:36.750Z,2.10
2022-11-09T04:36:04.557Z,1.58
2022-11-09T04:38:31.347Z,1.83
2022-11-09T04:41:02.936Z,2.05
2022-11-09T04:43:29.651Z,1.75
2022-11-09T04:45:59.780Z,2.78
2022-11-09T04:48:26.266Z,1.50
2022-11-09T04:50:52.775Z,1.88
2022-11-09T04:53:19.301Z,1.83
2022-11-09T04:55:45.850Z,2.22
2022-11-09T04:58:12.388Z,1.83
2022-11-09T05:00:39.124Z,1.85
2022-11-09T05:03:06.746Z,2.10
2022-11-09T05:05:34.767Z,2.00
2022-11-09T05:08:01.727Z,2.00
2022-11-09T05:10:28.392Z,2.17
2022-11-09T05:13:02.529Z,1.70
2022-11-09T05:15:29.253Z,2.15
2022-11-09T05:17:55.904Z,1.90
2022-11-09T05:20:22.614Z,2.28
2022-11-09T05:23:07.754Z,1.92
2022-11-09T05:25:34.423Z,2.53
2022-11-09T05:28:01.010Z,2.17
2022-11-09T05:30:27.575Z,2.22
2022-11-09T05:32:54.052Z,1.90
2022-11-09T05:35:20.579Z,2.30
2022-11-09T05:37:48.544Z,1.83
2022-11-09T05:40:16.025Z,2.00
2022-11-09T05:42:42.646Z,1.67
2022-11-09T05:45:40.243Z,2.08
2022-11-09T05:47:57.330Z,1.80
2022-11-09T05:50:23.944Z,2.08
2022-11-09T05:53:09.236Z,1.95
2022-11-09T05:55:36.056Z,2.38
2022-11-09T05:58:02.923Z,2.58
2022-11-09T06:00:29.625Z,2.28
2022-11-09T06:03:16.423Z,2.15
2022-11-09T06:05:42.982Z,1.77
2022-11-09T06:08:12.979Z,1.88
2022-11-09T06:10:40.257Z,1.98
2022-11-09T06:13:07.081Z,1.80
2022-11-09T06:15:33.581Z,2.00
2022-11-09T06:18:00.397Z,2.05
2022-11-09T06:20:28.086Z,2.97
2022-11-09T06:23:03.179Z,1.80
2022-11-09T06:25:31.769Z,1.73
2022-11-09T06:27:58.531Z,2.00
2022-11-09T06:30:25.055Z,1.73
2022-11-09T06:32:51.527Z,1.90
2022-11-09T06:35:18.050Z,1.60
2022-11-09T06:37:44.542Z,2.08
2022-11-09T06:40:12.527Z,1.38
2022-11-09T06:42:39.483Z,1.80
2022-11-09T06:45:06.527Z,1.60
2022-11-09T06:47:32.997Z,1.83
2022-11-09T06:50:00.682Z,1.45
2022-11-09T06:52:27.184Z,1.48
2022-11-09T06:54:53.650Z,1.63
2022-11-09T06:57:20.132Z,1.95
2022-11-09T06:59:46.658Z,1.65
2022-11-09T07:02:16.636Z,1.30
2022-11-09T07:04:43.319Z,1.88
2022-11-09T07:07:09.957Z,1.75
2022-11-09T07:09:36.557Z,1.73
2022-11-09T07:12:04.022Z,1.80
2022-11-09T07:14:30.515Z,1.42
2022-11-09T07:16:57.024Z,2.20
2022-11-09T07:19:23.574Z,1.52
2022-11-09T07:21:50.043Z,1.50
2022-11-09T07:24:16.620Z,2.10
2022-11-09T07:26:43.153Z,1.77
2022-11-09T07:29:09.620Z,1.67
2022-11-09T07:31:36.128Z,2.20
2022-11-09T07:34:04.799Z,1.70
2022-11-09T07:36:32.085Z,1.65
2022-11-09T07:38:58.864Z,1.52
2022-11-09T07:41:28.301Z,1.75
2022-11-09T07:43:57.964Z,1.60
2022-11-09T07:46:24.630Z,1.58
2022-11-09T07:48:51.181Z,1.52
2022-11-09T07:51:17.677Z,1.27
2022-11-09T07:53:44.412Z,1.30
2022-11-09T07:56:10.926Z,1.20
2022-11-09T07:58:37.650Z,1.10
2022-11-09T08:01:08.847Z,1.38
2022-11-09T08:03:35.495Z,1.17
2022-11-09T08:06:02.196Z,1.02
2022-11-09T08:08:28.664Z,1.27
2022-11-09T08:10:56.779Z,1.23
2022-11-09T08:13:23.493Z,1.17
2022-11-09T08:15:50.881Z,1.98
2022-11-09T08:18:21.813Z,1.48
2022-11-09T08:20:50.262Z,1.23
2022-11-09T08:23:19.326Z,1.83
2022-11-09T08:25:46.166Z,1.40
2022-11-09T08:28:15.873Z,1.95
2022-11-09T08:30:44.090Z,1.50
2022-11-09T08:33:12.424Z,1.30
2022-11-09T08:35:39.053Z,2.42
2022-11-09T08:38:06.058Z,1.50
2022-11-09T08:40:33.201Z,1.63
2022-11-09T08:43:04.346Z,1.40
2022-11-09T08:45:33.628Z,1.40
2022-11-09T08:48:00.633Z,1.20
2022-11-09T08:50:31.659Z,1.23
2022-11-09T08:52:58.205Z,1.70
2022-11-09T08:55:24.868Z,1.65
2022-11-09T08:57:59.058Z,1.50
2022-11-09T09:00:26.066Z,1.58
2022-11-09T09:02:53.019Z,1.45
2022-11-09T09:05:19.908Z,1.48
2022-11-09T09:07:46.441Z,2.08
2022-11-09T09:10:12.941Z,1.30
2022-11-09T09:12:39.740Z,1.38
2022-11-09T09:15:06.571Z,1.98
2022-11-09T09:17:35.365Z,1.25
2022-11-09T09:20:02.460Z,1.30
2022-11-09T09:22:29.088Z,1.38
2022-11-09T09:24:55.653Z,1.13
2022-11-09T09:27:22.258Z,1.50
2022-11-09T09:29:48.761Z,1.35
2022-11-09T09:32:15.283Z,1.60
2022-11-09T09:34:41.828Z,1.42
2022-11-09T09:37:08.381Z,1.08
2022-11-09T09:39:34.867Z,1.73
2022-11-09T09:42:05.763Z,1.40
2022-11-09T09:44:37.099Z,0.98
2022-11-09T09:49:37.034Z,1.20
2022-11-09T09:52:17.946Z,1.45
2022-11-09T09:54:52.124Z,1.60
2022-11-09T09:57:20.760Z,1.77
2022-11-09T09:59:52.744Z,1.50
2022-11-09T10:02:26.039Z,1.65
2022-11-09T10:04:55.190Z,1.45
2022-11-09T10:07:24.730Z,1.25
2022-11-09T10:10:03.506Z,1.83
2022-11-09T10:12:38.745Z,1.67
2022-11-09T10:15:24.725Z,1.30
2022-11-09T10:18:05.574Z,1.75
2022-11-09T10:21:12.774Z,1.40
2022-11-09T10:23:55.146Z,1.10
2022-11-09T10:26:24.828Z,1.20
2022-11-09T10:29:16.452Z,1.48
2022-11-09T10:31:44.108Z,1.30
2022-11-09T10:34:17.781Z,1.15
2022-11-09T10:36:50.080Z,1.33
2022-11-09T10:39:17.344Z,1.30
2022-11-09T10:42:02.338Z,1.20
2022-11-09T10:44:47.615Z,1.60
2022-11-09T10:47:46.937Z,1.75
2022-11-09T10:50:58.349Z,1.60
2022-11-09T10:53:43.483Z,1.13
2022-11-09T10:56:33.038Z,1.10
2022-11-09T10:59:54.424Z,1.73
2022-11-09T11:02:42.723Z,1.17
2022-11-09T11:05:29.927Z,1.42
2022-11-09T11:08:25.314Z,1.30
2022-11-09T11:11:34.499Z,1.55
2022-11-09T11:14:35.391Z,1.90
2022-11-09T11:17:36.088Z,1.05
2022-11-09T11:20:23.928Z,1.15
2022-11-09T11:23:20.912Z,1.08
2022-11-09T11:26:19.794Z,1.58
2022-11-09T11:29:27.741Z,1.65
2022-11-09T11:32:15.462Z,1.60
2022-11-09T11:35:01.687Z,1.67
2022-11-09T11:38:05.613Z,1.48
2022-11-09T11:41:35.842Z,1.60
2022-11-09T11:45:07.201Z,1.50
2022-11-09T11:48:26.011Z,1.40
2022-11-09T11:51:25.853Z,1.67
2022-11-09T11:54:25.466Z,1.40
2022-11-09T11:57:49.186Z,1.25
2022-11-09T12:00:48.978Z,1.42
2022-11-09T12:03:55.792Z,1.60
2022-11-09T12:07:21.139Z,1.73
2022-11-09T12:10:45.867Z,1.50
2022-11-09T12:13:49.780Z,1.58
2022-11-09T12:16:41.900Z,1.77
2022-11-09T12:19:35.736Z,1.40
2022-11-09T12:22:36.445Z,1.42
2022-11-09T12:25:26.401Z,1.92
2022-11-09T12:28:44.918Z,1.55
2022-11-09T12:31:45.336Z,1.42
2022-11-09T12:34:43.329Z,1.60
2022-11-09T12:37:37.408Z,1.20
2022-11-09T12:40:31.456Z,2.00
2022-11-09T12:43:31.151Z,1.60
2022-11-09T12:46:18.070Z,1.60
2022-11-09T12:49:04.940Z,1.75
2022-11-09T12:51:51.562Z,1.55
2022-11-09T12:54:42.052Z,1.58
2022-11-09T12:57:29.318Z,1.42
2022-11-09T13:00:35.984Z,1.60
2022-11-09T13:03:27.409Z,1.13
2022-11-09T13:06:24.751Z,2.00
2022-11-09T13:09:15.589Z,1.52
2022-11-09T13:12:16.802Z,1.80
2022-11-09T13:15:26.011Z,1.63
2022-11-09T13:18:40.394Z,1.55
2022-11-09T13:21:28.264Z,1.17
2022-11-09T13:24:31.693Z,1.92
2022-11-09T13:27:43.957Z,1.63
2022-11-09T13:30:28.843Z,1.75
2022-11-09T13:33:14.574Z,1.52
2022-11-09T13:36:20.231Z,1.50
2022-11-09T13:39:31.143Z,1.70
2022-11-09T13:42:30.975Z,1.63
2022-11-09T13:45:21.693Z,1.63
2022-11-09T13:48:06.899Z,1.83
2022-11-09T13:50:56.581Z,1.58
2022-11-09T13:53:47.840Z,1.25
2022-11-09T13:56:39.972Z,1.90
2022-11-09T13:59:30.045Z,1.58
2022-11-09T14:02:19.956Z,1.70
2022-11-09T14:05:04.976Z,1.38
2022-11-09T14:07:50.280Z,1.33
2022-11-09T14:10:46.015Z,1.23
2022-11-09T14:13:35.130Z,1.17
2022-11-09T14:16:41.350Z,1.08
2022-11-09T14:19:40.986Z,1.33
2022-11-09T14:22:26.643Z,1.48
2022-11-09T14:25:20.015Z,1.83
2022-11-09T14:28:21.147Z,1.73
2022-11-09T14:31:06.370Z,1.48
2022-11-09T14:34:05.895Z,1.20
2022-11-09T14:36:51.258Z,1.27
2022-11-09T14:39:37.188Z,1.40
2022-11-09T14:42:23.566Z,1.70
2022-11-09T14:45:14.776Z,1.65
2022-11-09T14:48:00.272Z,1.73
2022-11-09T14:50:45.356Z,1.50
2022-11-09T14:53:32.656Z,1.50
2022-11-09T14:56:19.887Z,1.88
2022-11-09T14:59:06.889Z,1.58
2022-11-09T15:02:15.655Z,1.48
2022-11-09T15:05:04.146Z,1.67
2022-11-09T15:07:49.534Z,1.23
2022-11-09T15:10:35.017Z,1.30
2022-11-09T15:13:29.582Z,1.60
2022-11-09T15:16:27.585Z,1.60
2022-11-09T15:19:24.540Z,1.75
2022-11-09T15:22:54.827Z,1.38
2022-11-09T15:25:43.372Z,1.48
2022-11-09T15:28:30.531Z,1.83
2022-11-09T15:31:18.664Z,1.60
2022-11-09T15:34:20.563Z,1.70
2022-11-09T15:37:46.329Z,2.05
2022-11-09T15:40:31.412Z,1.75
2022-11-09T15:43:16.671Z,1.80
2022-11-09T15:46:01.815Z,1.52
2022-11-09T15:48:46.966Z,1.63
2022-11-09T15:51:31.821Z,1.77
2022-11-09T15:54:18.050Z,1.77
2022-11-09T15:57:03.016Z,2.28
2022-11-09T15:59:49.729Z,1.50
2022-11-09T16:02:34.981Z,2.00
2022-11-09T16:05:22.498Z,1.92
2022-11-09T16:08:07.615Z,2.38
2022-11-09T16:10:52.627Z,2.40
2022-11-09T16:13:37.867Z,2.40
2022-11-09T16:16:23.059Z,2.47
2022-11-09T16:19:13.243Z,2.30
2022-11-09T16:21:59.024Z,2.67
2022-11-09T16:24:45.217Z,2.53
2022-11-09T16:30:35.477Z,2.30
2022-11-09T16:33:20.565Z,1.98
2022-11-09T16:36:09.718Z,1.92
2022-11-09T16:38:55.950Z,1.95
2022-11-09T16:41:41.844Z,2.50
2022-11-09T16:44:32.175Z,2.47
2022-11-09T16:47:19.499Z,2.33
2022-11-09T16:50:05.438Z,2.13
2022-11-09T16:52:50.436Z,1.90
2022-11-09T16:55:35.698Z,2.00
2022-11-09T16:58:21.771Z,2.22
2022-11-09T17:01:12.383Z,1.70
2022-11-09T17:06:43.703Z,2.35
2022-11-09T17:09:33.487Z,1.77
2022-11-09T17:12:18.473Z,2.20
2022-11-09T17:15:03.744Z,2.22
2022-11-09T17:17:48.802Z,2.17
2022-11-09T17:20:34.080Z,1.77
2022-11-09T17:23:19.613Z,2.60
2022-11-09T17:26:06.758Z,1.63
2022-11-09T17:28:51.796Z,1.70
2022-11-09T17:31:38.108Z,1.90
2022-11-09T17:34:23.207Z,1.50
2022-11-09T17:37:08.181Z,1.63
2022-11-09T17:39:53.323Z,1.90
2022-11-09T17:42:38.655Z,1.75
2022-11-09T17:45:23.996Z,1.40
2022-11-09T17:48:09.111Z,1.90
2022-11-09T17:50:54.842Z,1.77
2022-11-09T17:53:40.122Z,1.88
2022-11-09T17:56:25.417Z,1.38
2022-11-09T17:59:11.202Z,1.50
2022-11-09T18:01:56.337Z,1.92
2022-11-09T18:04:41.472Z,1.77
2022-11-09T18:07:26.803Z,1.50
2022-11-09T18:10:12.007Z,2.00
2022-11-09T18:12:57.267Z,1.70
2022-11-09T18:15:43.024Z,1.92
2022-11-09T18:18:29.147Z,1.83
2022-11-09T18:21:19.377Z,2.72
2022-11-09T18:24:04.714Z,2.10
2022-11-09T18:26:49.982Z,1.85
2022-11-09T18:29:34.989Z,1.80
2022-11-09T18:32:20.364Z,1.95
2022-11-09T18:35:05.862Z,2.13
2022-11-09T18:37:51.184Z,2.35
2022-11-09T18:40:36.273Z,1.85
2022-11-09T18:43:21.590Z,1.88
2022-11-09T18:46:09.155Z,1.77
2022-11-09T18:48:54.318Z,1.60
2022-11-09T18:51:39.667Z,2.00
2022-11-09T18:54:24.751Z,1.80
2022-11-09T18:57:13.724Z,2.50
2022-11-09T19:02:46.203Z,2.10
2022-11-09T19:05:31.359Z,1.73
2022-11-09T19:08:16.725Z,2.00
2022-11-09T19:11:06.483Z,2.22
2022-11-09T19:13:51.793Z,2.05
2022-11-09T19:16:36.928Z,1.83
2022-11-09T19:19:22.188Z,1.65
2022-11-09T19:22:18.070Z,2.30
2022-11-09T19:25:03.165Z,2.13
2022-11-09T19:27:48.132Z,1.92
2022-11-09T19:30:33.425Z,2.22
2022-11-09T19:33:18.369Z,2.78
2022-11-09T19:36:28.719Z,2.38
2022-11-09T19:39:09.853Z,2.25
2022-11-09T19:41:55.895Z,2.22
2022-11-09T19:44:40.949Z,2.08
2022-11-09T19:47:26.122Z,2.33
2022-11-09T19:50:11.317Z,2.88
2022-11-09T19:52:56.318Z,3.17
2022-11-09T19:55:41.614Z,2.53
2022-11-09T19:58:27.318Z,2.35
2022-11-09T20:01:12.449Z,2.10
2022-11-09T20:03:59.322Z,2.80
2022-11-09T20:06:44.551Z,2.25
2022-11-09T20:09:31.618Z,2.42
2022-11-09T20:12:35.199Z,2.33
2022-11-09T20:15:21.117Z,2.25
2022-11-09T20:18:06.325Z,2.28
2022-11-09T20:20:53.662Z,2.35
2022-11-09T20:23:38.729Z,2.28
2022-11-09T20:26:24.002Z,3.10
2022-11-09T20:29:09.613Z,2.25
2022-11-09T20:31:54.911Z,3.28
2022-11-09T20:34:40.208Z,2.60
2022-11-09T20:37:25.332Z,3.13
2022-11-09T20:40:11.439Z,2.38
2022-11-09T20:42:56.518Z,2.60
2022-11-09T20:45:41.839Z,2.60
2022-11-09T20:48:52.277Z,3.33
2022-11-09T20:51:32.198Z,2.47
2022-11-09T20:54:17.646Z,3.05
2022-11-09T20:57:02.517Z,2.47
2022-11-09T20:59:47.724Z,3.22
2022-11-09T21:02:32.820Z,2.90
2022-11-09T21:05:17.932Z,2.80
2022-11-09T21:08:02.984Z,2.17
2022-11-09T21:10:47.958Z,2.42
2022-11-09T21:13:33.675Z,2.80
2022-11-09T21:16:20.540Z,3.55
2022-11-09T21:19:05.513Z,2.72
2022-11-09T21:21:51.724Z,2.35
2022-11-09T21:24:55.519Z,2.42
2022-11-09T21:27:59.404Z,2.67
2022-11-09T21:30:44.867Z,2.67
2022-11-09T21:33:29.988Z,2.65
2022-11-09T21:36:15.235Z,2.72
2022-11-09T21:39:01.813Z,2.70
2022-11-09T21:41:46.961Z,2.58
2022-11-09T21:44:33.191Z,2.92
2022-11-09T21:47:18.325Z,3.63
2022-11-09T21:50:08.257Z,3.00
2022-11-09T21:52:56.726Z,3.25
2022-11-09T21:55:41.949Z,3.47
2022-11-09T21:58:27.036Z,3.25
2022-11-09T22:01:12.352Z,2.78
2022-11-09T22:03:57.720Z,2.67
2022-11-09T22:06:43.512Z,4.07
2022-11-09T22:09:35.752Z,2.88
2022-11-09T22:12:43.869Z,3.13
2022-11-09T22:15:47.641Z,2.58
2022-11-09T22:18:55.739Z,2.80
2022-11-09T22:21:42.281Z,2.60
2022-11-09T22:24:27.305Z,2.63
2022-11-09T22:27:12.634Z,3.63
2022-11-09T22:29:57.825Z,2.95
2022-11-09T22:32:42.784Z,3.40
2022-11-09T22:35:27.688Z,2.60
2022-11-09T22:38:12.898Z,2.78
2022-11-09T22:41:01.578Z,3.30
2022-11-09T22:43:46.968Z,2.67
2022-11-09T22:46:32.948Z,3.08
2022-11-09T22:49:19.045Z,3.72
2022-11-09T22:52:04.712Z,2.97
2022-11-09T22:54:49.775Z,3.47
2022-11-09T22:57:37.047Z,2.75
2022-11-09T23:00:22.912Z,2.90
2022-11-09T23:03:08.137Z,2.72
2022-11-09T23:05:53.333Z,2.92
2022-11-09T23:08:38.808Z,2.90
2022-11-09T23:11:25.033Z,2.92
2022-11-09T23:14:11.523Z,2.78
2022-11-09T23:16:56.693Z,2.10
2022-11-09T23:19:41.948Z,2.80
2022-11-09T23:22:27.117Z,2.67
2022-11-09T23:25:32.084Z,2.47
2022-11-09T23:28:17.608Z,2.70
2022-11-09T23:31:05.589Z,3.22
2022-11-09T23:33:55.312Z,2.40
2022-11-09T23:36:40.236Z,2.72
2022-11-09T23:39:25.282Z,2.67
2022-11-09T23:42:10.576Z,3.40
2022-11-09T23:44:55.464Z,2.85
2022-11-09T23:47:40.706Z,2.55
2022-11-09T23:50:26.435Z,2.72
2022-11-09T23:53:12.088Z,3.55
2022-11-09T23:56:03.016Z,2.88
2022-11-09T23:58:51.451Z,2.67
